Гербикан

Карта отелей и гостиниц, располагающихся рядом с аэропортом Гербикан :

Гербикан Хабаровский край 54° 13' 1.6788" N, 133° 22' 22.44" E
Гербикан Хабаровский край 54° 13' 1.6788" N, 133° 22' 22.44" E
Код аэродрома ИКАО: 
HE0K
Код аэродрома RU: 
ХЕ0К
Координаты: 
N54.21713° E133.37290°
Превышение над уровнем моря : 
116
Основная полоса: 
Курс магнитный: 
Длина основной ВПП: 
Ширина основной ВПП: 
Покрытие основной ВПП: 
Освещение ВПП: 
Тип: 
Вертодром
Класс аэродрома: 
Принадлежность: 
ГА
Статус: 
Действующий
Сайт: 
E-mail аэродрома: 
Страна: 
Россия
Регион: 
Хабаровский край
Город: 
Дополнительная информация: 

Найти трансфер

С помощью этой формы Вы можете найти трансфер из аэропорта Гербикан в город, аэропорт или вокзал:

Карта места

Javascript is required to view this map.

Погода в аэропортах:

Авиационная погода в Чорлу

Регион: 
Погода METAR: 
LTBU 281950Z 16011KT 9999 -SHRA SCT040 BKN100 21/18 Q1014 RMK RWY22 17013KT
Время наблюдения: 
2020-09-28T19:50:00Z
Температура C: 
21.0
Точка росы: 
18.0
Направление ветра: 
160
Скорость ветра (узлы): 
11
Метеорологическая видимость: 
6.21
Явления погоды: 
-SHRA
Условия полета: 
VFR

Авиационная погода в Елизово

Регион: 
Погода METAR: 
UHPP 281930Z 03004MPS 290V100 9999 -SHRA SCT040CB 06/05 Q1003 R16R/290345 NOSIG RMK MT OBSC QFE749/0999
Время наблюдения: 
2020-09-28T19:30:00Z
Температура C: 
6.0
Точка росы: 
5.0
Направление ветра: 
30
Скорость ветра (узлы): 
8
Метеорологическая видимость: 
6.21
Явления погоды: 
-SHRA
Условия полета: 
VFR
Аэропорт подробнее: 

Авиационная погода в аэропорту Сокол

Регион: 
Погода METAR: 
UHMM 282000Z 09001MPS 0150 R10/0150N FU FZFG VV001 M01/M02 Q1007 R10/CLRD70 RMK QBB050 MT OBSC QFE740 R28/07002MPS
Время наблюдения: 
2020-09-28T20:00:00Z
Температура C: 
-1.0
Точка росы: 
-2.0
Направление ветра: 
90
Скорость ветра (узлы): 
2
Метеорологическая видимость: 
0.09
Явления погоды: 
FU FZFG
Условия полета: 
LIFR
Аэропорт подробнее: 

Авиационная погода в Богашево

Регион: 
Погода METAR: 
UNTT 281930Z 26003MPS 8000 -SHRA FEW021CB 09/06 Q1018 R21/090060 NOSIG RMK QFE748
Время наблюдения: 
2020-09-28T19:30:00Z
Температура C: 
9.0
Точка росы: 
6.0
Направление ветра: 
260
Скорость ветра (узлы): 
6
Метеорологическая видимость: 
4.97
Явления погоды: 
-SHRA
Условия полета: 
MVFR
Аэропорт подробнее: